Terminal Aerodrome Forecast
Issued by NWS

Home | Current Version | Previous Version | Text Only | Print | Product List | Glossary On
Versions: 1 2 3 4 5 6 7 8 9 10 11 12 13 14 15 16 17 18 19 20 21 22 23 24 25 26 27
000
FTUS45 KVEF 270244 AAA
TAFLAS
TAF AMD
KLAS 270244Z 2703/2724 19010KT P6SM VCTS BKN120CB
      TEMPO 2708/2712 VRB15G25KT -TSRA BKN100CB
     FM271300 VRB06KT P6SM BKN120
     FM271800 12007KT P6SM SCT120 BKN150 PROB30 2720/2724 VRB15G25KT
      -TSRA BKN100CB=

USA.gov is the U.S. government's official web portal to all federal, state and local government web resources and services.